Washington, DC (20082)

4:22 PM EDT on September 01, 2014 (GMT -0400)
Capitol Hill, Washington, DC USA | Change Station
CLOSE
Current Station
Personal Weather Station
Location: Washington, DC
Elevation: 92 ft
Nearby Weather Stations
Active Advisory: Severe Thunderstorm Warning

Elev 92 ft 38.89 °N, 76.99 °W | Updated 4 minutes ago

Thunderstorm
Thunderstorm
90.6 °F
Feels Like 108 °F
N
2.0
Wind Variable Wind from SW

Today
High -- | Low -- °F
--% Chance of Precip.
Yesterday
High -- | Low -- °F
Precip. -- in
6:36 AM 7:38 PM
Waxing Crescent, 44% visible
Pressure 29.96 in
Visibility 10.0 miles
Clouds Mostly Cloudy 4700 ft
Mostly Cloudy 5500 ft
Mostly Cloudy 6500 ft
Mostly Cloudy 25000 ft
Heat Index 108 °F
Dew Point 80 °F
Humidity 71%
Rainfall 0.00 in
Snow Depth Not available.
UV 3 out of 12
Pollen 7.50 out of 12
Air Quality Not available.
Flu Activity Not available.
SPECI KDCA 012008Z 21011KT 10SM TS BKN047CB BKN055 BKN065 BKN250 32/23 A2996 RMK AO2 TSB07 OCNL LTGICCG VC W-N TS W-N MOV E VCSH NW-N

More Conditions Fewer Conditions

Pressure 29.96 in
Visibility 10.0 miles
Clouds Mostly Cloudy 4700 ft
Mostly Cloudy 5500 ft
Mostly Cloudy 6500 ft
Mostly Cloudy 25000 ft
Heat Index 108 °F
Dew Point 80 °F
Humidity 71%
Rainfall 0.00 in
Snow Depth Not available.
UV 3 out of 12
Pollen 7.50 out of 12
Air Quality Not available.
Flu Activity Not available.
SPECI KDCA 012008Z 21011KT 10SM TS BKN047CB BKN055 BKN065 BKN250 32/23 A2996 RMK AO2 TSB07 OCNL LTGICCG VC W-N TS W-N MOV E VCSH NW-N

More Conditions Fewer Conditions

10-Day Weather Forecast

Almanac

Astronomy

Sep. 01, 2014 Rise Set
Actual Time 6:36 AM EDT 7:38 PM EDT
Civil Twilight 6:09 AM EDT 8:05 PM EDT
Nautical Twilight 5:37 AM EDT 8:38 PM EDT
Astronomical Twilight 5:03 AM EDT 9:11 PM EDT
Moon 1:16 PM EDT 11:41 PM EDT
Length of Visible Light 13h 56m
Length of Day
13h 01m
Tomorrow will be 2m 26s shorter.
Waxing Crescent, 44% of the Moon is Illuminated
Today
Waxing Crescent
Sep 2
First Quarter
Sep 8
Full
Sep 15
Last Quarter
Sep 24
New

Today's Extremes

State Highs State Lows

Community

WunderPhotos

Upload Photos

1,749,397 photos uploaded!

WunderBlogs® & News

Nearby

Snow Depth

Station Depth Elevation
No new snow has been reported.

Earthquake Activity

City Distance Mag. Time & Date
No recent earthquake activity has been reported nearby.
Minimum magnitude displayed is 2.5.

Coastal Water Temperatures

Place Temperature
Washington, DC 80.1 °F
Baltimore, MD 81.0 °F
Solomons Island, MD 80.1 °F

Nearby Weather Stations